메인 페이지
METAR-TAF:

METAR-TAF

공항 :

야운데, 카메룬

위도: 03-50N, 경도: 011-31E, 고도: 751m

현재 날씨관측

예보는 1 시간 8분 전, 06:00시(UTC)에 발표되었습니다.
4kt남서풍과 풍을 오가는
온도 21°C
습도 100%
기압 1018 hPa
시정 10km 이상
고도 600ft 상공 구름 많음

METAR: FKYS 020600Z 26004KT 220V280 9999 BKN006 21/21 Q1018 NOSIG

시각: 08:08 (07:08 UTC)

예보

예보는 2 시간 8분 전, 05:00시(UTC)에 발표되었습니다.
예보 대상 시간: 02일 06시부터 03일 06시까지 (UTC)
여러 방향의 바람 3kt
시정 10km 이상
고도 600ft 상공 구름 많음
전환 중
02일 08시부터 02일 10시까지 (UTC)
고도 1400ft 상공 구름 많음
고도 2300ft 상공 구름 조금, 적란운.
일시적
02일 14시부터 02일 18시까지 (UTC)
뇌우
확률 30%
02일 16시부터 02일 20시까지 (UTC)
시정: 4000m
뇌우, 비

TAF: FKYS 020500Z 0206/0306 VRB03KT 9999 BKN006 BECMG 0208/0210 BKN014 FEW023CB TEMPO 0214/0218 TS PROB30 0216/0220 4000 TSRA

4,000개 이상의 공항 관측 자료 및 예보 (METAR 및 TAF 보고).

지도상에서 검색 가능한 기상관측소가 노란 점과 빨간 점으로 표시되어 있습니다.

기상관측소 명을 보려면 표시 위로 마우스를 이동하세요.

날씨 관측과 예보를 보려면 클릭하세요.

지도 변경 : 확대하려면 엑스 표시가 있는 녹색 버튼, 축소하려면 빼기 표시가 있는 녹색 버튼, 다음 페이지의 지도를 보려면 녹색 화살표를 클릭하세요.


METAR-TAF: